createdAt,value
2023-09-23T00:00:26.345Z,90705.53
2023-09-23T00:02:53.084Z,90714.91
2023-09-23T00:05:21.247Z,90717.25
2023-09-23T00:07:47.787Z,90713.69
2023-09-23T00:10:14.225Z,90713.38
2023-09-23T00:12:41.640Z,90707.09
2023-09-23T00:15:08.780Z,90720.41
2023-09-23T00:17:37.142Z,90723.31
2023-09-23T00:20:16.195Z,90720.28
2023-09-23T00:22:43.175Z,90715.88
2023-09-23T00:25:10.612Z,90716.47
2023-09-23T00:27:36.984Z,90720.41
2023-09-23T00:30:06.037Z,90714.16
2023-09-23T00:32:35.180Z,90718.00
2023-09-23T00:35:01.631Z,90723.66
2023-09-23T00:37:28.270Z,90724.19
2023-09-23T00:39:54.635Z,90720.41
2023-09-23T00:42:21.809Z,90722.38
2023-09-23T00:44:48.249Z,90715.09
2023-09-23T00:47:15.016Z,90718.13
2023-09-23T00:49:45.807Z,90725.03
2023-09-23T00:52:13.029Z,90735.22
2023-09-23T00:54:47.211Z,90739.63
2023-09-23T00:57:15.162Z,90736.38
2023-09-23T00:59:41.504Z,90726.09
2023-09-23T01:02:07.917Z,90738.91
2023-09-23T01:04:34.944Z,90742.94
2023-09-23T01:07:03.261Z,90737.88
2023-09-23T01:09:31.030Z,90739.16
2023-09-23T01:11:57.669Z,90741.47
2023-09-23T01:14:24.072Z,90750.06
2023-09-23T01:16:50.894Z,90746.44
2023-09-23T01:19:17.498Z,90753.41
2023-09-23T01:21:43.862Z,90750.75
2023-09-23T01:24:10.235Z,90756.59
2023-09-23T01:26:37.090Z,90759.19
2023-09-23T01:29:05.714Z,90747.19
2023-09-23T01:31:32.175Z,90743.63
2023-09-23T01:33:59.273Z,90745.38
2023-09-23T01:36:25.744Z,90746.44
2023-09-23T01:38:52.167Z,90744.59
2023-09-23T01:41:18.788Z,90752.94
2023-09-23T01:43:46.108Z,90759.91
2023-09-23T01:46:12.668Z,90760.28
2023-09-23T01:48:39.474Z,90763.50
2023-09-23T01:51:07.502Z,90764.66
2023-09-23T01:53:33.925Z,90769.66
2023-09-23T01:56:00.429Z,90776.56
2023-09-23T01:58:26.827Z,90772.56
2023-09-23T02:00:55.164Z,90777.75
2023-09-23T02:03:24.076Z,90772.97
2023-09-23T02:05:50.598Z,90779.94
2023-09-23T02:08:17.388Z,90772.00
2023-09-23T02:10:44.322Z,90777.25
2023-09-23T02:13:10.702Z,90775.34
2023-09-23T02:15:37.471Z,90774.97
2023-09-23T02:18:05.517Z,90769.59
2023-09-23T02:20:31.913Z,90775.97
2023-09-23T02:22:58.274Z,90784.03
2023-09-23T02:25:27.376Z,90780.53
2023-09-23T02:27:53.921Z,90764.78
2023-09-23T02:30:20.298Z,90781.81
2023-09-23T02:32:47.906Z,90783.66
2023-09-23T02:35:15.047Z,90793.50
2023-09-23T02:37:41.803Z,90789.88
2023-09-23T02:40:12.558Z,90791.56
2023-09-23T02:42:39.963Z,90787.06
2023-09-23T02:45:07.889Z,90795.78
2023-09-23T02:47:34.311Z,90793.41
2023-09-23T02:50:01.193Z,90800.13
2023-09-23T02:52:27.637Z,90803.81
2023-09-23T02:54:55.426Z,90802.97
2023-09-23T02:57:22.082Z,90812.59
2023-09-23T02:59:57.875Z,90805.34
2023-09-23T03:02:28.709Z,90813.91
2023-09-23T03:04:59.812Z,90811.25
2023-09-23T03:07:35.318Z,90818.09
2023-09-23T03:10:04.947Z,90810.44
2023-09-23T03:12:41.944Z,90820.38
2023-09-23T03:15:15.475Z,90815.75
2023-09-23T03:17:51.427Z,90824.66
2023-09-23T03:20:26.101Z,90815.19
2023-09-23T03:22:53.585Z,90827.84
2023-09-23T03:25:20.904Z,90829.97
2023-09-23T03:27:48.764Z,90823.22
2023-09-23T03:30:15.686Z,90829.97
2023-09-23T03:32:42.134Z,90827.84
2023-09-23T03:35:18.565Z,90835.44
2023-09-23T03:37:48.788Z,90836.72
2023-09-23T03:40:16.710Z,90848.75
2023-09-23T03:42:43.140Z,90840.75
2023-09-23T03:45:11.958Z,90839.41
2023-09-23T03:47:38.401Z,90842.88
2023-09-23T03:50:05.158Z,90847.84
2023-09-23T03:52:31.689Z,90849.56
2023-09-23T03:54:58.947Z,90852.53
2023-09-23T03:57:25.292Z,90858.47
2023-09-23T03:59:51.673Z,90864.41
2023-09-23T04:02:18.091Z,90873.22
2023-09-23T04:04:48.928Z,90870.81
2023-09-23T04:07:17.077Z,90862.53
2023-09-23T04:09:43.452Z,90874.38
2023-09-23T04:12:10.179Z,90875.00
2023-09-23T04:14:36.849Z,90875.78
2023-09-23T04:17:04.193Z,90867.72
2023-09-23T04:19:31.097Z,90875.44
2023-09-23T04:21:57.898Z,90870.81
2023-09-23T04:24:24.381Z,90875.00
2023-09-23T04:26:50.779Z,90877.00
2023-09-23T04:29:20.953Z,90868.88
2023-09-23T04:31:47.622Z,90879.81
2023-09-23T04:34:15.890Z,90884.34
2023-09-23T04:36:42.256Z,90882.34
2023-09-23T04:39:08.618Z,90887.72
2023-09-23T04:41:35.150Z,90888.34
2023-09-23T04:44:01.512Z,90891.28
2023-09-23T04:46:33.435Z,90888.06
2023-09-23T04:48:59.773Z,90893.56
2023-09-23T04:51:26.912Z,90889.88
2023-09-23T04:53:53.329Z,90900.75
2023-09-23T04:56:20.037Z,90900.59
2023-09-23T04:58:46.809Z,90893.63
2023-09-23T05:01:13.484Z,90902.16
2023-09-23T05:03:39.869Z,90909.34
2023-09-23T05:06:07.020Z,90915.63
2023-09-23T05:08:33.787Z,90908.63
2023-09-23T05:11:00.181Z,90909.97
2023-09-23T05:13:26.584Z,90915.16
2023-09-23T05:15:53.038Z,90921.28
2023-09-23T05:18:19.414Z,90917.66
2023-09-23T05:20:48.779Z,90917.94
2023-09-23T05:23:15.496Z,90916.25
2023-09-23T05:25:42.301Z,90926.41
2023-09-23T05:28:11.329Z,90931.53
2023-09-23T05:30:38.051Z,90935.59
2023-09-23T05:33:04.438Z,90940.19
2023-09-23T05:35:30.875Z,90952.44
2023-09-23T05:37:57.270Z,90945.72
2023-09-23T05:40:23.664Z,90948.91
2023-09-23T05:42:50.589Z,90956.50
2023-09-23T05:45:17.300Z,90962.34
2023-09-23T05:47:43.756Z,90960.78
2023-09-23T05:50:10.373Z,90961.13
2023-09-23T05:52:37.793Z,90976.28
2023-09-23T05:55:05.081Z,90977.34
2023-09-23T05:57:31.676Z,90976.66
2023-09-23T05:59:58.028Z,90982.09
2023-09-23T06:02:25.288Z,90985.50
2023-09-23T06:04:51.803Z,90994.44
2023-09-23T06:07:19.299Z,90987.28
2023-09-23T06:09:45.672Z,90987.72
2023-09-23T06:12:12.270Z,90997.22
2023-09-23T06:14:38.639Z,91010.75
2023-09-23T06:17:05.045Z,91007.94
2023-09-23T06:19:33.451Z,91003.88
2023-09-23T06:21:59.857Z,91003.72
2023-09-23T06:24:26.195Z,90998.56
2023-09-23T06:26:52.533Z,91006.63
2023-09-23T06:29:18.909Z,91011.44
2023-09-23T06:31:45.287Z,91008.44
2023-09-23T06:34:11.684Z,91012.50
2023-09-23T06:36:38.029Z,91014.59
2023-09-23T06:39:04.393Z,91013.53
2023-09-23T06:41:30.739Z,91018.34
2023-09-23T06:43:57.861Z,91021.03
2023-09-23T06:46:24.359Z,91022.84
2023-09-23T06:48:50.765Z,91023.53
2023-09-23T06:51:17.111Z,91031.16
2023-09-23T06:53:44.314Z,91033.13
2023-09-23T06:56:12.103Z,91037.56
2023-09-23T06:58:38.674Z,91038.47
2023-09-23T07:01:05.044Z,91038.00
2023-09-23T07:03:31.561Z,91043.81
2023-09-23T07:05:58.049Z,91037.78
2023-09-23T07:08:24.462Z,91050.28
2023-09-23T07:10:51.241Z,91052.81
2023-09-23T07:13:17.704Z,91056.56
2023-09-23T07:15:44.031Z,91055.03
2023-09-23T07:18:10.639Z,91064.00
2023-09-23T07:20:37.202Z,91066.69
2023-09-23T07:23:03.759Z,91063.25
2023-09-23T07:25:30.342Z,91088.22
2023-09-23T07:28:00.548Z,91077.66
2023-09-23T07:30:26.932Z,91084.50
2023-09-23T07:32:53.318Z,91083.56
2023-09-23T07:35:19.839Z,91080.28
2023-09-23T07:37:46.237Z,91082.06
2023-09-23T07:40:12.679Z,91081.97
2023-09-23T07:42:39.192Z,91088.84
2023-09-23T07:45:05.837Z,91090.66
2023-09-23T07:47:32.920Z,91087.78
2023-09-23T07:50:00.106Z,91099.59
2023-09-23T07:52:26.670Z,91101.81
2023-09-23T07:54:53.006Z,91094.78
2023-09-23T07:57:19.373Z,91101.31
2023-09-23T07:59:45.756Z,91099.72
2023-09-23T08:02:12.244Z,91107.59
2023-09-23T08:04:38.736Z,91103.38
2023-09-23T08:07:05.214Z,91096.31
2023-09-23T08:09:31.625Z,91101.25
2023-09-23T08:11:58.014Z,91107.50
2023-09-23T08:14:24.441Z,91107.53
2023-09-23T08:16:51.916Z,91114.16
2023-09-23T08:19:18.632Z,91115.84
2023-09-23T08:21:46.764Z,91112.03
2023-09-23T08:24:13.124Z,91117.97
2023-09-23T08:26:39.457Z,91120.13
2023-09-23T08:29:06.445Z,91118.38
2023-09-23T08:31:32.926Z,91134.88
2023-09-23T08:33:59.918Z,91129.25
2023-09-23T08:36:26.320Z,91130.94
2023-09-23T08:38:52.691Z,91130.50
2023-09-23T08:41:22.336Z,91134.31
2023-09-23T08:43:51.266Z,91129.25
2023-09-23T08:46:20.932Z,91135.25
2023-09-23T08:48:47.411Z,91129.63
2023-09-23T08:51:14.012Z,91134.75
2023-09-23T08:53:43.316Z,91136.78
2023-09-23T08:56:09.830Z,91132.66
2023-09-23T08:58:36.244Z,91131.81
2023-09-23T09:01:02.735Z,91145.38
2023-09-23T09:03:29.160Z,91140.06
2023-09-23T09:05:55.684Z,91132.91
2023-09-23T09:08:22.118Z,91136.09
2023-09-23T09:10:48.580Z,91139.63
2023-09-23T09:13:18.345Z,91133.31
2023-09-23T09:15:45.398Z,91142.25
2023-09-23T09:18:11.821Z,91144.88
2023-09-23T09:20:38.937Z,91139.72
2023-09-23T09:23:05.376Z,70079.94
2023-09-23T09:25:32.539Z,70079.94
2023-09-23T09:27:59.239Z,70079.94
2023-09-23T09:30:25.603Z,70079.94
2023-09-23T09:32:51.981Z,70079.94
2023-09-23T09:35:21.356Z,91136.81
2023-09-23T09:37:48.221Z,91139.03
2023-09-23T09:40:22.474Z,91138.94
2023-09-23T09:42:53.228Z,91140.88
2023-09-23T09:45:20.522Z,91141.94
2023-09-23T09:47:49.810Z,91141.53
2023-09-23T09:50:16.313Z,91135.41
2023-09-23T09:52:47.038Z,91135.34
2023-09-23T09:55:16.089Z,91123.44
2023-09-23T09:57:42.502Z,91133.09
2023-09-23T10:00:16.747Z,91125.84
2023-09-23T10:02:45.912Z,91126.09
2023-09-23T10:05:21.492Z,91119.47
2023-09-23T10:07:57.552Z,91122.28
2023-09-23T10:10:33.535Z,91118.56
2023-09-23T10:13:09.381Z,91129.84
2023-09-23T10:15:37.359Z,91120.34
2023-09-23T10:18:08.626Z,91128.47
2023-09-23T10:20:35.306Z,91121.50
2023-09-23T10:23:02.794Z,91114.72
2023-09-23T10:25:38.812Z,91114.47
2023-09-23T10:28:05.603Z,91116.19
2023-09-23T10:30:33.911Z,91108.41
2023-09-23T10:33:00.282Z,91107.09
2023-09-23T10:35:27.886Z,91108.81
2023-09-23T10:37:54.365Z,91110.22
2023-09-23T10:40:21.380Z,91116.00
2023-09-23T10:42:47.901Z,91109.47
2023-09-23T10:45:14.511Z,91111.19
2023-09-23T10:47:44.925Z,91108.06
2023-09-23T10:50:11.575Z,91116.06
2023-09-23T10:52:38.073Z,91111.78
2023-09-23T10:55:04.583Z,91109.72
2023-09-23T10:57:30.962Z,91104.91
2023-09-23T10:59:57.328Z,91111.78
2023-09-23T11:02:27.365Z,91113.16
2023-09-23T11:04:56.923Z,91112.34
2023-09-23T11:07:25.044Z,91113.63
2023-09-23T11:09:51.402Z,91104.84
2023-09-23T11:12:17.768Z,91109.66
2023-09-23T11:14:47.137Z,91121.56
2023-09-23T11:17:27.836Z,91120.84
2023-09-23T11:19:54.974Z,91110.38
2023-09-23T11:22:27.500Z,91122.53
2023-09-23T11:24:57.445Z,91114.72
2023-09-23T11:27:24.114Z,91117.66
2023-09-23T11:29:50.476Z,91121.16
2023-09-23T11:32:20.383Z,91119.66
2023-09-23T11:34:46.765Z,91129.91
2023-09-23T11:37:13.113Z,91125.16
2023-09-23T11:39:39.457Z,91122.09
2023-09-23T11:42:06.233Z,91126.56
2023-09-23T11:44:33.198Z,91120.78
2023-09-23T11:46:59.771Z,91117.09
2023-09-23T11:49:26.793Z,91118.34
2023-09-23T11:51:53.132Z,91119.31
2023-09-23T11:54:19.528Z,91122.59
2023-09-23T11:56:45.892Z,91116.69
2023-09-23T11:59:13.168Z,91108.50
2023-09-23T12:01:40.307Z,91115.66
2023-09-23T12:04:06.819Z,91118.69
2023-09-23T12:06:37.640Z,91123.88
2023-09-23T12:09:04.270Z,91118.31
2023-09-23T12:11:31.334Z,91113.56
2023-09-23T12:13:58.023Z,91114.63
2023-09-23T12:16:24.533Z,70079.94
2023-09-23T12:18:50.938Z,70079.94
2023-09-23T12:21:17.277Z,86780.88
2023-09-23T12:23:43.716Z,91120.88
2023-09-23T12:26:11.060Z,91105.53
2023-09-23T12:28:37.742Z,91115.97
2023-09-23T12:31:04.156Z,91105.66
2023-09-23T12:33:30.518Z,91111.44
2023-09-23T12:35:56.903Z,91107.97
2023-09-23T12:38:23.289Z,70079.94
2023-09-23T12:40:50.116Z,91112.03
2023-09-23T12:43:16.449Z,73615.25
2023-09-23T12:45:45.064Z,91105.31
2023-09-23T12:48:11.729Z,91115.81
2023-09-23T12:50:38.175Z,91115.94
2023-09-23T12:53:04.698Z,91118.53
2023-09-23T12:55:31.106Z,91113.47
2023-09-23T12:57:57.464Z,91110.59
2023-09-23T13:00:24.245Z,91107.09
2023-09-23T13:02:51.480Z,91105.34
2023-09-23T13:05:18.040Z,91108.34
2023-09-23T13:07:44.595Z,91101.38
2023-09-23T13:10:14.694Z,91102.13
2023-09-23T13:12:41.405Z,91109.50
2023-09-23T13:15:08.023Z,91103.28
2023-09-23T13:17:34.632Z,91107.66
2023-09-23T13:20:01.226Z,91107.22
2023-09-23T13:22:27.895Z,91108.28
2023-09-23T13:24:54.321Z,91109.50
2023-09-23T13:27:21.998Z,91107.84
2023-09-23T13:29:48.391Z,91110.53
2023-09-23T13:32:14.754Z,91119.66
2023-09-23T13:34:41.919Z,91113.97
2023-09-23T13:37:08.327Z,91113.97
2023-09-23T13:39:34.732Z,91122.03
2023-09-23T13:42:03.555Z,91119.84
2023-09-23T13:44:30.073Z,91123.63
2023-09-23T13:46:56.526Z,91121.28
2023-09-23T13:49:22.875Z,91120.53
2023-09-23T13:51:49.235Z,91123.13
2023-09-23T13:54:15.609Z,91130.03
2023-09-23T13:56:42.037Z,91121.03
2023-09-23T13:59:08.472Z,91121.63
2023-09-23T14:01:34.860Z,91136.59
2023-09-23T14:04:01.364Z,91134.28
2023-09-23T14:06:27.747Z,91129.03
2023-09-23T14:08:54.396Z,91133.56
2023-09-23T14:11:20.798Z,91129.94
2023-09-23T14:13:48.401Z,91133.72
2023-09-23T14:16:14.989Z,91133.44
2023-09-23T14:18:41.358Z,91138.41
2023-09-23T14:21:08.427Z,91140.50
2023-09-23T14:23:35.717Z,91141.53
2023-09-23T14:26:02.452Z,91147.13
2023-09-23T14:28:29.264Z,91144.31
2023-09-23T14:30:55.774Z,91156.69
2023-09-23T14:33:22.205Z,91150.13
2023-09-23T14:35:48.646Z,91151.06
2023-09-23T14:38:15.080Z,91153.72
2023-09-23T14:40:41.533Z,91148.28
2023-09-23T14:43:07.932Z,91151.72
2023-09-23T14:45:34.735Z,91160.69
2023-09-23T14:48:01.560Z,91164.47
2023-09-23T14:50:28.006Z,91168.19
2023-09-23T14:52:54.502Z,91173.53
2023-09-23T14:55:21.945Z,91174.00
2023-09-23T14:57:48.997Z,91169.66
2023-09-23T15:00:15.402Z,91174.50
2023-09-23T15:02:42.437Z,91181.16
2023-09-23T15:05:09.147Z,91175.00
2023-09-23T15:07:35.559Z,91180.34
2023-09-23T15:10:02.031Z,91193.69
2023-09-23T15:12:28.480Z,91197.09
2023-09-23T15:14:54.852Z,91198.91
2023-09-23T15:17:21.258Z,91206.03
2023-09-23T15:19:47.663Z,91205.81
2023-09-23T15:22:14.030Z,91210.50
2023-09-23T15:24:44.930Z,91208.22
2023-09-23T15:27:12.487Z,91209.28
2023-09-23T15:29:39.251Z,91218.19
2023-09-23T15:32:05.711Z,91208.19
2023-09-23T15:34:32.477Z,91220.53
2023-09-23T15:36:58.824Z,91219.25
2023-09-23T15:39:25.160Z,91217.50
2023-09-23T15:41:51.818Z,91218.41
2023-09-23T15:44:18.221Z,91224.34
2023-09-23T15:46:44.804Z,91222.19
2023-09-23T15:49:13.216Z,91219.97
2023-09-23T15:51:39.697Z,91229.34
2023-09-23T15:54:06.081Z,91229.16
2023-09-23T15:56:35.474Z,91231.91
2023-09-23T15:59:02.319Z,91237.50
2023-09-23T16:01:29.107Z,91240.53
2023-09-23T16:03:55.665Z,91243.56
2023-09-23T16:06:22.137Z,91250.97
2023-09-23T16:08:48.734Z,91258.53
2023-09-23T16:11:15.345Z,91256.22
2023-09-23T16:13:41.751Z,91273.13
2023-09-23T16:16:08.216Z,91277.19
2023-09-23T16:18:34.720Z,91274.19
2023-09-23T16:21:01.149Z,91282.25
2023-09-23T16:23:27.551Z,91281.88
2023-09-23T16:25:53.978Z,91289.91
2023-09-23T16:28:20.577Z,91284.16
2023-09-23T16:30:47.075Z,91291.81
2023-09-23T16:33:13.710Z,91288.72
2023-09-23T16:35:40.342Z,91297.53
2023-09-23T16:38:06.767Z,91304.66
2023-09-23T16:40:33.152Z,91305.13
2023-09-23T16:43:01.281Z,91311.19
2023-09-23T16:45:27.664Z,91313.41
2023-09-23T16:47:54.132Z,91313.50
2023-09-23T16:50:20.667Z,91309.78
2023-09-23T16:52:47.038Z,91324.81
2023-09-23T16:55:13.399Z,91322.34
2023-09-23T16:57:39.746Z,91333.19
2023-09-23T17:00:06.468Z,91324.69
2023-09-23T17:02:32.954Z,91341.75
2023-09-23T17:05:00.096Z,91344.09
2023-09-23T17:07:26.897Z,91346.97
2023-09-23T17:09:53.970Z,91351.63
2023-09-23T17:12:20.383Z,91353.97
2023-09-23T17:14:46.873Z,91353.28
2023-09-23T17:17:13.470Z,91355.16
2023-09-23T17:19:42.576Z,91358.16
2023-09-23T17:22:10.240Z,91366.28
2023-09-23T17:24:36.695Z,91368.28
2023-09-23T17:27:04.247Z,91367.31
2023-09-23T17:29:30.611Z,91373.16
2023-09-23T17:31:57.060Z,91372.53
2023-09-23T17:34:23.547Z,91378.59
2023-09-23T17:36:49.971Z,91380.72
2023-09-23T17:39:16.360Z,91395.22
2023-09-23T17:41:42.866Z,91390.41
2023-09-23T17:44:10.436Z,91395.69
2023-09-23T17:46:36.989Z,91406.78
2023-09-23T17:49:03.464Z,91406.75
2023-09-23T17:51:29.819Z,91411.88
2023-09-23T17:53:56.200Z,91407.84
2023-09-23T17:56:27.030Z,91409.25
2023-09-23T17:58:53.411Z,91417.72
2023-09-23T18:01:19.792Z,91421.28
2023-09-23T18:03:46.469Z,91428.91
2023-09-23T18:06:13.741Z,91433.72
2023-09-23T18:08:40.111Z,91438.09
2023-09-23T18:11:07.101Z,91435.88
2023-09-23T18:13:33.770Z,91440.56
2023-09-23T18:16:00.213Z,91439.34
2023-09-23T18:18:28.527Z,91442.69
2023-09-23T18:20:55.860Z,91449.06
2023-09-23T18:23:22.305Z,91456.75
2023-09-23T18:25:48.726Z,91448.44
2023-09-23T18:28:15.263Z,91466.56
2023-09-23T18:30:41.711Z,91464.22
2023-09-23T18:33:08.400Z,91473.69
2023-09-23T18:35:34.914Z,91477.16
2023-09-23T18:38:01.352Z,91478.63
2023-09-23T18:40:27.698Z,91485.78
2023-09-23T18:42:56.704Z,91487.84
2023-09-23T18:45:23.202Z,91496.75
2023-09-23T18:47:55.065Z,91499.72
2023-09-23T18:50:29.948Z,91501.84
2023-09-23T18:52:56.376Z,91514.03
2023-09-23T18:55:23.881Z,91510.91
2023-09-23T18:57:51.868Z,91511.13
2023-09-23T19:00:19.818Z,91511.56
2023-09-23T19:02:49.035Z,91518.41
2023-09-23T19:05:15.770Z,91518.34
2023-09-23T19:07:42.148Z,91519.38
2023-09-23T19:10:08.866Z,91524.09
2023-09-23T19:12:35.289Z,91530.66
2023-09-23T19:15:03.075Z,91537.66
2023-09-23T19:17:30.584Z,91541.03
2023-09-23T19:19:56.961Z,91545.06
2023-09-23T19:22:23.311Z,91546.63
2023-09-23T19:24:49.698Z,91553.63
2023-09-23T19:27:16.108Z,91556.44
2023-09-23T19:29:42.563Z,91552.09
2023-09-23T19:32:09.047Z,91553.06
2023-09-23T19:34:35.427Z,91557.13
2023-09-23T19:37:01.876Z,91556.84
2023-09-23T19:39:29.724Z,91558.47
2023-09-23T19:41:56.890Z,91556.94
2023-09-23T19:44:23.325Z,91557.78
2023-09-23T19:46:49.774Z,91560.50
2023-09-23T19:49:17.113Z,91570.84
2023-09-23T19:51:43.477Z,91565.28
2023-09-23T19:54:10.956Z,91573.66
2023-09-23T19:56:37.724Z,91568.59
2023-09-23T19:59:04.158Z,91590.25
2023-09-23T20:01:30.563Z,91576.97
2023-09-23T20:03:56.946Z,91584.84
2023-09-23T20:06:23.358Z,91579.63
2023-09-23T20:08:49.785Z,91587.91
2023-09-23T20:11:18.911Z,91588.19
2023-09-23T20:13:46.421Z,91588.50
2023-09-23T20:16:13.904Z,91592.34
2023-09-23T20:18:40.297Z,91589.66
2023-09-23T20:21:06.805Z,91590.75
2023-09-23T20:23:33.425Z,91590.84
2023-09-23T20:26:00.916Z,91596.44
2023-09-23T20:28:27.555Z,91588.16
2023-09-23T20:31:00.523Z,91591.47
2023-09-23T20:33:28.002Z,70080.22
2023-09-23T20:35:54.958Z,70079.94
2023-09-23T20:38:21.435Z,70079.94
2023-09-23T20:40:48.245Z,70079.94
2023-09-23T20:43:14.690Z,70079.94
2023-09-23T20:45:45.447Z,70079.94
2023-09-23T20:48:11.932Z,70079.94
2023-09-23T20:50:42.731Z,91603.56
2023-09-23T20:53:09.203Z,91613.63
2023-09-23T20:55:35.697Z,91623.66
2023-09-23T20:58:07.346Z,91622.00
2023-09-23T21:00:36.001Z,91611.22
2023-09-23T21:03:03.332Z,91634.75
2023-09-23T21:05:29.912Z,91626.69
2023-09-23T21:07:56.291Z,91624.03
2023-09-23T21:10:22.925Z,91623.72
2023-09-23T21:12:49.679Z,91626.06
2023-09-23T21:15:16.518Z,91619.84
2023-09-23T21:17:44.691Z,91630.28
2023-09-23T21:20:11.953Z,91629.50
2023-09-23T21:22:38.563Z,91637.31
2023-09-23T21:25:07.475Z,91636.84
2023-09-23T21:27:34.137Z,91630.75
2023-09-23T21:30:00.789Z,91641.94
2023-09-23T21:32:27.453Z,91644.75
2023-09-23T21:34:53.916Z,91639.75
2023-09-23T21:37:20.274Z,91641.16
2023-09-23T21:39:46.611Z,91653.50
2023-09-23T21:42:13.105Z,91653.59
2023-09-23T21:44:40.333Z,91651.72
2023-09-23T21:47:06.877Z,91653.59
2023-09-23T21:49:36.195Z,91652.47
2023-09-23T21:52:02.572Z,91652.47
2023-09-23T21:54:29.299Z,91652.47
2023-09-23T21:56:55.695Z,89696.84
2023-09-23T21:59:22.142Z,91648.09
2023-09-23T22:01:50.196Z,91647.50
2023-09-23T22:04:16.876Z,91649.13
2023-09-23T22:06:43.460Z,91656.38
2023-09-23T22:09:09.888Z,91662.63
2023-09-23T22:11:36.321Z,91656.66
2023-09-23T22:14:07.434Z,91647.63
2023-09-23T22:16:39.848Z,91642.56
2023-09-23T22:19:06.510Z,91640.44
2023-09-23T22:21:33.151Z,91647.41
2023-09-23T22:23:59.544Z,91647.41
2023-09-23T22:26:25.995Z,91647.66
2023-09-23T22:28:52.448Z,91645.91
2023-09-23T22:31:24.557Z,91657.38
2023-09-23T22:33:51.246Z,91655.81
2023-09-23T22:36:18.168Z,91660.31
2023-09-23T22:38:44.689Z,91662.72
2023-09-23T22:41:11.080Z,91656.16
2023-09-23T22:43:37.423Z,91655.81
2023-09-23T22:46:03.785Z,91652.28
2023-09-23T22:48:30.270Z,91650.75
2023-09-23T22:50:57.334Z,91650.75
2023-09-23T22:53:23.766Z,91653.66
2023-09-23T22:55:50.283Z,91663.03
2023-09-23T22:58:17.071Z,91668.41
2023-09-23T23:00:43.542Z,91663.09
2023-09-23T23:03:13.702Z,91658.50
2023-09-23T23:05:41.360Z,91659.91
2023-09-23T23:08:09.205Z,91663.81
2023-09-23T23:10:36.274Z,91665.47
2023-09-23T23:13:02.886Z,91667.75
2023-09-23T23:15:29.257Z,91663.09
2023-09-23T23:17:55.901Z,91670.28
2023-09-23T23:20:28.714Z,91667.69
2023-09-23T23:22:55.217Z,91674.22
2023-09-23T23:25:21.976Z,91666.28
2023-09-23T23:27:48.419Z,91661.44
2023-09-23T23:30:15.338Z,91671.03
2023-09-23T23:32:41.876Z,91668.16
2023-09-23T23:35:08.471Z,91663.22
2023-09-23T23:37:37.666Z,91669.34
2023-09-23T23:40:05.765Z,91665.97
2023-09-23T23:42:35.370Z,91664.09
2023-09-23T23:45:01.772Z,91667.31
2023-09-23T23:47:28.892Z,91669.13
2023-09-23T23:49:55.361Z,91675.56
2023-09-23T23:52:21.967Z,91675.19
2023-09-23T23:54:48.380Z,91677.44
2023-09-23T23:57:15.878Z,91685.81
2023-09-23T23:59:45.504Z,91683.97
